Avilla, MO

8:33 PM CDT on July 29, 2014 (GMT -0500)
Monett (KHFJ) Elev 1316 ft | 36.91 °N, 94.01 °W | Change Station

Current weather conditions updated 18 minutes ago

Scattered Clouds
Scattered Clouds
75 °F
Feels Like 75 °F
N
0
Wind Variable Wind from North

Tomorrow is forecast to be Cooler than today. Afternoon rain developing.

Today
High -- | Low -- °F
--% Chance of Precip.
Yesterday
High -- | Low -- °F
Precip. -- in
6:18 AM 8:26 PM
Waxing Crescent, 9% visible
Pressure 30.08 in
Visibility 10.0 miles
Clouds Scattered Clouds 6500 ft
Scattered Clouds 11000 ft
Dew Point 59 °F
Humidity 57%
Rainfall 0.00 in
Snow Depth Not available.
UV 0 out of 12
Pollen 6.40 out of 12
Air Quality Not available.
Flu Activity Not available.
METAR KHFJ 300115Z AUTO 00000KT 10SM SCT065 SCT110 24/15 A3008 RMK AO2

More Conditions Fewer Conditions

Pressure 30.08 in
Visibility 10.0 miles
Clouds Scattered Clouds 6500 ft
Scattered Clouds 11000 ft
Dew Point 59 °F
Humidity 57%
Rainfall 0.00 in
Snow Depth Not available.
UV 0 out of 12
Pollen 6.40 out of 12
Air Quality Not available.
Flu Activity Not available.
METAR KHFJ 300115Z AUTO 00000KT 10SM SCT065 SCT110 24/15 A3008 RMK AO2

More Conditions Fewer Conditions

10-Day Weather Forecast

Almanac

Astronomy

Jul. 29, 2014 Rise Set
Actual Time 6:18 AM CDT 8:26 PM CDT
Civil Twilight 5:49 AM CDT 8:55 PM CDT
Nautical Twilight 5:14 AM CDT 9:30 PM CDT
Astronomical Twilight 4:35 AM CDT 10:09 PM CDT
Moon 8:51 AM CDT (7/29) 9:44 PM CDT (7/29)
Length of Visible Light 15h 05m
Length of Day
14h 07m
Tomorrow will be 1m 43s shorter.
Waxing Crescent, 9% of the Moon is Illuminated
Today
Waxing Crescent
Aug 3
First Quarter
Aug 10
Full
Aug 17
Last Quarter
Aug 25
New

Today's Extremes

State Highs State Lows

Community

WunderPhotos

Upload Photos

1,738,939 photos uploaded!

Nearby

Snow Depth

Station Depth Elevation
No new snow has been reported.

Earthquake Activity

City Distance Mag. Time & Date
No recent earthquake activity has been reported nearby.
Minimum magnitude displayed is 2.5.

Coastal Water Temperatures

Place Temperature
No Stations Reporting

Nearby Weather Stations

Station Location Temp. Heat Index Dew Point Humidity Wind Precip. Elev Updated Type
RAWS MT VERNON MO, La Russell, MO 74 °F 76 °F 61 °F 64% WNW  at  4 mph 0.00 in / hr 1266 ft 8:00 PM CDT MADIS
MesoWest MT VERNON , Freistatt, MO 79 °F 80 °F 58 °F 48% NW  at  2 mph 0.00 in / hr 1149 ft 7:00 PM CDT MADIS
Monett, MO 73.4 °F 76 °F 61 °F 66% West  at  0.8 mph 0.00 in / hr 1306 ft 8:33 PM CDT Normal
South east of Granby, Granby, MO 71.4 °F 75 °F 61 °F 69% WNW  at  0.0 mph 0.00 in / hr 1217 ft 8:32 PM CDT Rapid Fire
Greenfield West (WOHSN), Greenfield, MO 75.6 °F 78 °F 62 °F 64% WSW  at  0.0 mph - / hr 1066 ft 8:18 PM CDT Normal
Mohaska, Joplin, MO 77.1 °F 79 °F 62 °F 60% North  at  0.0 mph 0.00 in / hr 1010 ft 8:20 PM CDT Normal

Show More Stations Show Fewer Stations